sensor_id;sensor_type;location;lat;lon;timestamp;temperature;humidity
49503;DHT22;35409;48.776;9.204;2023-05-09T01:22:54;13.00;99.90
49503;DHT22;35409;48.776;9.204;2023-05-09T01:53:05;12.80;99.90
49503;DHT22;35409;48.776;9.204;2023-05-09T01:55:34;12.80;99.90
49503;DHT22;35409;48.776;9.204;2023-05-09T01:58:03;12.70;99.90
49503;DHT22;35409;48.776;9.204;2023-05-09T02:00:33;12.70;99.90
49503;DHT22;35409;48.776;9.204;2023-05-09T02:02:58;12.60;99.90
49503;DHT22;35409;48.776;9.204;2023-05-09T02:05:27;12.60;99.90
49503;DHT22;35409;48.776;9.204;2023-05-09T02:07:54;12.60;99.90
49503;DHT22;35409;48.776;9.204;2023-05-09T02:10:25;12.60;99.90
49503;DHT22;35409;48.776;9.204;2023-05-09T02:12:52;12.60;99.90
49503;DHT22;35409;48.776;9.204;2023-05-09T02:15:17;12.50;99.90
49503;DHT22;35409;48.776;9.204;2023-05-09T02:17:43;12.50;99.90
49503;DHT22;35409;48.776;9.204;2023-05-09T02:20:09;12.50;99.90
49503;DHT22;35409;48.776;9.204;2023-05-09T02:22:36;12.50;99.90
49503;DHT22;35409;48.776;9.204;2023-05-09T02:25:03;12.50;99.90
49503;DHT22;35409;48.776;9.204;2023-05-09T02:27:33;12.50;99.90
49503;DHT22;35409;48.776;9.204;2023-05-09T02:30:02;12.60;99.90
49503;DHT22;35409;48.776;9.204;2023-05-09T02:32:30;12.60;99.90
49503;DHT22;35409;48.776;9.204;2023-05-09T02:34:58;12.60;99.90
49503;DHT22;35409;48.776;9.204;2023-05-09T02:37:26;12.60;99.90
49503;DHT22;35409;48.776;9.204;2023-05-09T02:39:51;12.60;99.90
49503;DHT22;35409;48.776;9.204;2023-05-09T02:42:21;12.60;99.90
49503;DHT22;35409;48.776;9.204;2023-05-09T02:44:50;12.70;99.90
49503;DHT22;35409;48.776;9.204;2023-05-09T02:47:15;12.70;99.90
49503;DHT22;35409;48.776;9.204;2023-05-09T02:49:41;12.70;99.90
49503;DHT22;35409;48.776;9.204;2023-05-09T02:52:06;12.70;99.90
49503;DHT22;35409;48.776;9.204;2023-05-09T02:54:32;12.70;99.90
49503;DHT22;35409;48.776;9.204;2023-05-09T02:56:58;12.70;99.90
49503;DHT22;35409;48.776;9.204;2023-05-09T02:59:24;12.70;99.90
49503;DHT22;35409;48.776;9.204;2023-05-09T03:01:50;12.70;99.90
49503;DHT22;35409;48.776;9.204;2023-05-09T03:04:16;12.70;99.90
49503;DHT22;35409;48.776;9.204;2023-05-09T03:06:42;12.60;99.90
49503;DHT22;35409;48.776;9.204;2023-05-09T03:09:08;12.60;99.90
49503;DHT22;35409;48.776;9.204;2023-05-09T03:11:34;12.60;99.90
49503;DHT22;35409;48.776;9.204;2023-05-09T03:14:03;12.60;99.90
49503;DHT22;35409;48.776;9.204;2023-05-09T03:16:29;12.60;99.90
49503;DHT22;35409;48.776;9.204;2023-05-09T03:18:55;12.60;99.90
49503;DHT22;35409;48.776;9.204;2023-05-09T03:21:21;12.60;99.90
49503;DHT22;35409;48.776;9.204;2023-05-09T03:23:47;12.60;99.90
49503;DHT22;35409;48.776;9.204;2023-05-09T03:26:12;12.60;99.90
49503;DHT22;35409;48.776;9.204;2023-05-09T03:28:39;12.50;99.90
49503;DHT22;35409;48.776;9.204;2023-05-09T03:31:04;12.60;99.90
49503;DHT22;35409;48.776;9.204;2023-05-09T03:33:30;12.50;99.90
49503;DHT22;35409;48.776;9.204;2023-05-09T03:35:56;12.50;99.90
49503;DHT22;35409;48.776;9.204;2023-05-09T03:38:21;12.50;99.90
49503;DHT22;35409;48.776;9.204;2023-05-09T03:40:49;12.50;99.90
49503;DHT22;35409;48.776;9.204;2023-05-09T03:43:15;12.50;99.90
49503;DHT22;35409;48.776;9.204;2023-05-09T03:45:41;12.50;99.90
49503;DHT22;35409;48.776;9.204;2023-05-09T03:48:06;12.50;99.90
49503;DHT22;35409;48.776;9.204;2023-05-09T03:50:34;12.50;99.90
49503;DHT22;35409;48.776;9.204;2023-05-09T03:53:00;12.50;99.90
49503;DHT22;35409;48.776;9.204;2023-05-09T03:55:26;12.50;99.90
49503;DHT22;35409;48.776;9.204;2023-05-09T03:57:52;12.50;99.90
49503;DHT22;35409;48.776;9.204;2023-05-09T04:00:18;12.50;99.90
49503;DHT22;35409;48.776;9.204;2023-05-09T04:02:43;12.50;99.90
49503;DHT22;35409;48.776;9.204;2023-05-09T04:05:09;12.50;99.90
49503;DHT22;35409;48.776;9.204;2023-05-09T04:07:35;12.50;99.90
49503;DHT22;35409;48.776;9.204;2023-05-09T04:10:00;12.60;99.90
49503;DHT22;35409;48.776;9.204;2023-05-09T04:12:26;12.60;99.90
49503;DHT22;35409;48.776;9.204;2023-05-09T04:14:51;12.60;99.90
49503;DHT22;35409;48.776;9.204;2023-05-09T04:17:17;12.60;99.90
49503;DHT22;35409;48.776;9.204;2023-05-09T04:19:43;12.60;99.90
49503;DHT22;35409;48.776;9.204;2023-05-09T04:22:08;12.60;99.90
49503;DHT22;35409;48.776;9.204;2023-05-09T04:24:34;12.60;99.90
49503;DHT22;35409;48.776;9.204;2023-05-09T04:27:00;12.60;99.90
49503;DHT22;35409;48.776;9.204;2023-05-09T04:29:26;12.60;99.90
49503;DHT22;35409;48.776;9.204;2023-05-09T04:31:52;12.60;99.90
49503;DHT22;35409;48.776;9.204;2023-05-09T04:34:18;12.60;99.90
49503;DHT22;35409;48.776;9.204;2023-05-09T04:36:43;12.70;99.90
49503;DHT22;35409;48.776;9.204;2023-05-09T04:39:12;12.70;99.90
49503;DHT22;35409;48.776;9.204;2023-05-09T04:41:38;12.70;99.90
49503;DHT22;35409;48.776;9.204;2023-05-09T04:44:03;12.70;99.90
49503;DHT22;35409;48.776;9.204;2023-05-09T04:46:29;12.70;99.90
49503;DHT22;35409;48.776;9.204;2023-05-09T04:48:55;12.80;99.90
49503;DHT22;35409;48.776;9.204;2023-05-09T04:51:20;12.80;99.90
49503;DHT22;35409;48.776;9.204;2023-05-09T04:53:46;12.90;99.90
49503;DHT22;35409;48.776;9.204;2023-05-09T04:56:12;12.90;99.90
49503;DHT22;35409;48.776;9.204;2023-05-09T04:58:37;13.00;99.90
49503;DHT22;35409;48.776;9.204;2023-05-09T05:01:04;13.10;99.90
49503;DHT22;35409;48.776;9.204;2023-05-09T05:03:30;13.20;99.90
49503;DHT22;35409;48.776;9.204;2023-05-09T05:05:56;13.30;99.90
49503;DHT22;35409;48.776;9.204;2023-05-09T05:08:22;13.50;99.90
49503;DHT22;35409;48.776;9.204;2023-05-09T05:10:47;13.60;99.90
49503;DHT22;35409;48.776;9.204;2023-05-09T05:13:14;13.70;99.90
49503;DHT22;35409;48.776;9.204;2023-05-09T05:15:40;13.70;99.90
49503;DHT22;35409;48.776;9.204;2023-05-09T05:18:05;13.80;99.90
49503;DHT22;35409;48.776;9.204;2023-05-09T05:20:31;13.80;99.90
49503;DHT22;35409;48.776;9.204;2023-05-09T05:22:57;14.00;99.90
49503;DHT22;35409;48.776;9.204;2023-05-09T05:25:23;14.10;99.90
49503;DHT22;35409;48.776;9.204;2023-05-09T05:27:49;14.20;99.90
49503;DHT22;35409;48.776;9.204;2023-05-09T05:30:14;14.30;99.90
49503;DHT22;35409;48.776;9.204;2023-05-09T05:32:40;14.40;99.90
49503;DHT22;35409;48.776;9.204;2023-05-09T05:35:06;14.40;99.90
49503;DHT22;35409;48.776;9.204;2023-05-09T05:37:32;14.30;99.90
49503;DHT22;35409;48.776;9.204;2023-05-09T05:39:58;14.30;99.90
49503;DHT22;35409;48.776;9.204;2023-05-09T05:42:23;14.30;99.90
49503;DHT22;35409;48.776;9.204;2023-05-09T05:44:49;14.40;99.90
49503;DHT22;35409;48.776;9.204;2023-05-09T05:47:14;14.40;99.90
49503;DHT22;35409;48.776;9.204;2023-05-09T05:49:40;14.40;99.90
49503;DHT22;35409;48.776;9.204;2023-05-09T05:52:05;14.40;99.90
49503;DHT22;35409;48.776;9.204;2023-05-09T05:54:31;14.50;99.90
49503;DHT22;35409;48.776;9.204;2023-05-09T05:56:57;14.50;99.90
49503;DHT22;35409;48.776;9.204;2023-05-09T05:59:22;14.50;99.90
49503;DHT22;35409;48.776;9.204;2023-05-09T06:01:48;14.50;99.90
49503;DHT22;35409;48.776;9.204;2023-05-09T06:04:13;14.50;99.90
49503;DHT22;35409;48.776;9.204;2023-05-09T06:06:39;14.60;99.90
49503;DHT22;35409;48.776;9.204;2023-05-09T06:09:05;14.60;99.90
49503;DHT22;35409;48.776;9.204;2023-05-09T06:11:30;14.80;99.90
49503;DHT22;35409;48.776;9.204;2023-05-09T06:13:56;14.90;99.90
49503;DHT22;35409;48.776;9.204;2023-05-09T06:16:21;15.10;99.90
49503;DHT22;35409;48.776;9.204;2023-05-09T06:18:47;15.20;99.90
49503;DHT22;35409;48.776;9.204;2023-05-09T06:21:13;15.40;99.90
49503;DHT22;35409;48.776;9.204;2023-05-09T06:23:38;15.50;99.90
49503;DHT22;35409;48.776;9.204;2023-05-09T06:26:04;15.60;99.90
49503;DHT22;35409;48.776;9.204;2023-05-09T06:28:30;15.70;99.90
49503;DHT22;35409;48.776;9.204;2023-05-09T06:30:55;16.00;99.90
49503;DHT22;35409;48.776;9.204;2023-05-09T06:33:21;16.10;99.90
49503;DHT22;35409;48.776;9.204;2023-05-09T06:35:47;16.20;99.90
49503;DHT22;35409;48.776;9.204;2023-05-09T06:38:12;16.40;99.90
49503;DHT22;35409;48.776;9.204;2023-05-09T06:40:38;16.50;99.90
49503;DHT22;35409;48.776;9.204;2023-05-09T06:43:03;16.60;99.90
49503;DHT22;35409;48.776;9.204;2023-05-09T06:45:29;16.60;99.90
49503;DHT22;35409;48.776;9.204;2023-05-09T06:47:55;16.70;99.90
49503;DHT22;35409;48.776;9.204;2023-05-09T06:50:21;16.60;99.90
49503;DHT22;35409;48.776;9.204;2023-05-09T06:52:46;16.60;99.90
49503;DHT22;35409;48.776;9.204;2023-05-09T06:55:12;16.70;99.90
49503;DHT22;35409;48.776;9.204;2023-05-09T06:57:38;16.70;99.90
49503;DHT22;35409;48.776;9.204;2023-05-09T07:00:05;16.80;99.90
49503;DHT22;35409;48.776;9.204;2023-05-09T07:02:31;16.80;99.90
49503;DHT22;35409;48.776;9.204;2023-05-09T07:04:56;17.00;99.90
49503;DHT22;35409;48.776;9.204;2023-05-09T07:07:22;17.20;99.90
49503;DHT22;35409;48.776;9.204;2023-05-09T07:09:48;17.50;99.90
49503;DHT22;35409;48.776;9.204;2023-05-09T07:12:13;17.90;99.90
49503;DHT22;35409;48.776;9.204;2023-05-09T07:14:39;18.10;99.90
49503;DHT22;35409;48.776;9.204;2023-05-09T07:17:06;18.30;99.90
49503;DHT22;35409;48.776;9.204;2023-05-09T07:19:33;18.50;99.90
49503;DHT22;35409;48.776;9.204;2023-05-09T07:21:58;18.70;99.90
49503;DHT22;35409;48.776;9.204;2023-05-09T07:24:24;18.70;99.90
49503;DHT22;35409;48.776;9.204;2023-05-09T07:26:50;18.90;99.90
49503;DHT22;35409;48.776;9.204;2023-05-09T07:29:15;19.00;99.90
49503;DHT22;35409;48.776;9.204;2023-05-09T07:31:42;19.00;99.90
49503;DHT22;35409;48.776;9.204;2023-05-09T07:34:08;19.00;99.90
49503;DHT22;35409;48.776;9.204;2023-05-09T07:36:33;19.10;99.90
49503;DHT22;35409;48.776;9.204;2023-05-09T07:38:59;19.20;99.90
49503;DHT22;35409;48.776;9.204;2023-05-09T07:41:25;19.30;99.90
49503;DHT22;35409;48.776;9.204;2023-05-09T07:43:51;19.40;99.90
49503;DHT22;35409;48.776;9.204;2023-05-09T07:46:16;19.50;99.90
49503;DHT22;35409;48.776;9.204;2023-05-09T07:48:42;19.60;99.90
49503;DHT22;35409;48.776;9.204;2023-05-09T07:51:07;19.50;99.90
49503;DHT22;35409;48.776;9.204;2023-05-09T07:53:33;19.60;99.90
49503;DHT22;35409;48.776;9.204;2023-05-09T07:55:59;19.70;99.90
49503;DHT22;35409;48.776;9.204;2023-05-09T07:58:25;19.60;99.90
49503;DHT22;35409;48.776;9.204;2023-05-09T08:00:50;19.60;99.90
49503;DHT22;35409;48.776;9.204;2023-05-09T08:03:16;19.60;99.90
49503;DHT22;35409;48.776;9.204;2023-05-09T08:05:42;19.70;99.90
49503;DHT22;35409;48.776;9.204;2023-05-09T08:08:07;19.70;99.90
49503;DHT22;35409;48.776;9.204;2023-05-09T08:10:33;19.80;99.90
49503;DHT22;35409;48.776;9.204;2023-05-09T08:12:58;20.00;99.90
49503;DHT22;35409;48.776;9.204;2023-05-09T08:15:24;20.00;99.90
49503;DHT22;35409;48.776;9.204;2023-05-09T08:17:50;20.10;99.90
49503;DHT22;35409;48.776;9.204;2023-05-09T08:20:16;20.10;99.90
49503;DHT22;35409;48.776;9.204;2023-05-09T08:22:41;20.00;99.90
49503;DHT22;35409;48.776;9.204;2023-05-09T08:25:08;19.90;99.90
49503;DHT22;35409;48.776;9.204;2023-05-09T08:27:33;19.70;99.90
49503;DHT22;35409;48.776;9.204;2023-05-09T08:29:59;19.70;99.90
49503;DHT22;35409;48.776;9.204;2023-05-09T08:32:25;19.60;99.90
49503;DHT22;35409;48.776;9.204;2023-05-09T08:34:50;19.70;99.90
49503;DHT22;35409;48.776;9.204;2023-05-09T08:37:16;19.80;99.90
49503;DHT22;35409;48.776;9.204;2023-05-09T08:39:42;19.80;99.90
49503;DHT22;35409;48.776;9.204;2023-05-09T08:42:09;19.90;99.90
49503;DHT22;35409;48.776;9.204;2023-05-09T08:44:35;20.00;99.90
49503;DHT22;35409;48.776;9.204;2023-05-09T08:47:02;20.00;99.90
49503;DHT22;35409;48.776;9.204;2023-05-09T08:49:28;20.10;99.90
49503;DHT22;35409;48.776;9.204;2023-05-09T08:51:55;20.20;99.90
49503;DHT22;35409;48.776;9.204;2023-05-09T08:54:22;20.20;99.90
49503;DHT22;35409;48.776;9.204;2023-05-09T08:56:48;20.30;99.90
49503;DHT22;35409;48.776;9.204;2023-05-09T08:59:16;20.40;99.90
49503;DHT22;35409;48.776;9.204;2023-05-09T09:01:41;20.40;99.90
49503;DHT22;35409;48.776;9.204;2023-05-09T09:04:08;20.40;99.90
49503;DHT22;35409;48.776;9.204;2023-05-09T09:06:36;20.60;99.90
49503;DHT22;35409;48.776;9.204;2023-05-09T09:09:05;20.70;99.90
49503;DHT22;35409;48.776;9.204;2023-05-09T09:11:31;20.80;99.90
49503;DHT22;35409;48.776;9.204;2023-05-09T09:14:01;20.80;99.90
49503;DHT22;35409;48.776;9.204;2023-05-09T09:16:28;20.70;99.90
49503;DHT22;35409;48.776;9.204;2023-05-09T09:18:55;20.70;99.90
49503;DHT22;35409;48.776;9.204;2023-05-09T09:21:22;20.90;99.90
49503;DHT22;35409;48.776;9.204;2023-05-09T09:23:51;21.00;99.90
49503;DHT22;35409;48.776;9.204;2023-05-09T09:26:18;21.10;99.90
49503;DHT22;35409;48.776;9.204;2023-05-09T09:28:44;21.10;99.90
49503;DHT22;35409;48.776;9.204;2023-05-09T09:31:26;21.10;99.90
49503;DHT22;35409;48.776;9.204;2023-05-09T09:33:58;21.00;99.90
49503;DHT22;35409;48.776;9.204;2023-05-09T09:36:28;21.00;99.90
49503;DHT22;35409;48.776;9.204;2023-05-09T09:38:58;21.20;99.90
49503;DHT22;35409;48.776;9.204;2023-05-09T09:44:18;21.50;99.90
49503;DHT22;35409;48.776;9.204;2023-05-09T09:46:54;21.80;99.90
49503;DHT22;35409;48.776;9.204;2023-05-09T09:49:24;22.00;99.90
49503;DHT22;35409;48.776;9.204;2023-05-09T09:54:16;22.40;99.90
49503;DHT22;35409;48.776;9.204;2023-05-09T09:56:43;22.60;99.90
49503;DHT22;35409;48.776;9.204;2023-05-09T09:59:14;22.60;99.90
49503;DHT22;35409;48.776;9.204;2023-05-09T10:02:02;22.70;99.90
49503;DHT22;35409;48.776;9.204;2023-05-09T10:04:34;23.00;99.90
49503;DHT22;35409;48.776;9.204;2023-05-09T10:07:02;23.20;99.90
49503;DHT22;35409;48.776;9.204;2023-05-09T11:54:40;25.80;96.00
49503;DHT22;35409;48.776;9.204;2023-05-09T11:57:06;25.90;96.00
49503;DHT22;35409;48.776;9.204;2023-05-09T11:59:35;26.00;95.60
49503;DHT22;35409;48.776;9.204;2023-05-09T12:02:05;25.80;94.90
49503;DHT22;35409;48.776;9.204;2023-05-09T12:29:13;27.00;93.30
49503;DHT22;35409;48.776;9.204;2023-05-09T12:31:43;27.00;93.30
49503;DHT22;35409;48.776;9.204;2023-05-09T12:34:08;26.90;92.90
49503;DHT22;35409;48.776;9.204;2023-05-09T12:36:35;26.90;92.40
49503;DHT22;35409;48.776;9.204;2023-05-09T12:39:06;26.90;93.40
49503;DHT22;35409;48.776;9.204;2023-05-09T12:41:33;26.80;93.70
49503;DHT22;35409;48.776;9.204;2023-05-09T12:43:59;26.50;92.80
49503;DHT22;35409;48.776;9.204;2023-05-09T12:46:25;26.30;92.60
49503;DHT22;35409;48.776;9.204;2023-05-09T12:48:51;26.20;93.30
49503;DHT22;35409;48.776;9.204;2023-05-09T12:51:20;26.10;93.70
49503;DHT22;35409;48.776;9.204;2023-05-09T12:53:46;26.10;94.10
49503;DHT22;35409;48.776;9.204;2023-05-09T12:56:19;26.20;93.40
49503;DHT22;35409;48.776;9.204;2023-05-09T12:58:52;26.20;93.70
49503;DHT22;35409;48.776;9.204;2023-05-09T13:01:27;26.10;93.10
49503;DHT22;35409;48.776;9.204;2023-05-09T13:04:01;26.20;93.70
49503;DHT22;35409;48.776;9.204;2023-05-09T13:06:27;26.20;93.00
49503;DHT22;35409;48.776;9.204;2023-05-09T13:08:58;26.10;92.10
49503;DHT22;35409;48.776;9.204;2023-05-09T13:11:24;25.70;91.90
49503;DHT22;35409;48.776;9.204;2023-05-09T13:13:52;25.30;92.20
49503;DHT22;35409;48.776;9.204;2023-05-09T13:16:18;25.20;93.00
49503;DHT22;35409;48.776;9.204;2023-05-09T13:18:43;25.00;93.10
49503;DHT22;35409;48.776;9.204;2023-05-09T13:21:09;24.90;93.20
49503;DHT22;35409;48.776;9.204;2023-05-09T13:23:35;24.90;92.40
49503;DHT22;35409;48.776;9.204;2023-05-09T13:26:00;24.90;92.90
49503;DHT22;35409;48.776;9.204;2023-05-09T13:28:26;24.90;92.50
49503;DHT22;35409;48.776;9.204;2023-05-09T13:30:51;24.90;92.60
49503;DHT22;35409;48.776;9.204;2023-05-09T13:33:17;24.80;93.60
49503;DHT22;35409;48.776;9.204;2023-05-09T13:35:42;24.70;93.20
49503;DHT22;35409;48.776;9.204;2023-05-09T13:38:08;24.50;93.60
49503;DHT22;35409;48.776;9.204;2023-05-09T13:40:33;24.30;92.90
49503;DHT22;35409;48.776;9.204;2023-05-09T13:42:59;24.00;93.20
49503;DHT22;35409;48.776;9.204;2023-05-09T13:45:25;23.80;94.10
49503;DHT22;35409;48.776;9.204;2023-05-09T13:47:50;23.70;94.50
49503;DHT22;35409;48.776;9.204;2023-05-09T13:50:16;23.60;94.70
49503;DHT22;35409;48.776;9.204;2023-05-09T13:52:42;23.60;94.60
49503;DHT22;35409;48.776;9.204;2023-05-09T13:55:07;23.70;94.20
49503;DHT22;35409;48.776;9.204;2023-05-09T13:57:33;23.60;94.20
49503;DHT22;35409;48.776;9.204;2023-05-09T13:59:59;23.70;94.20
49503;DHT22;35409;48.776;9.204;2023-05-09T14:02:25;23.70;94.30
49503;DHT22;35409;48.776;9.204;2023-05-09T14:04:50;23.70;93.80
49503;DHT22;35409;48.776;9.204;2023-05-09T14:07:16;23.70;94.00
49503;DHT22;35409;48.776;9.204;2023-05-09T14:09:42;23.70;94.20
49503;DHT22;35409;48.776;9.204;2023-05-09T14:12:08;23.60;93.90
49503;DHT22;35409;48.776;9.204;2023-05-09T14:14:34;23.60;94.00
49503;DHT22;35409;48.776;9.204;2023-05-09T14:16:59;23.40;94.10
49503;DHT22;35409;48.776;9.204;2023-05-09T14:19:27;23.20;94.60
49503;DHT22;35409;48.776;9.204;2023-05-09T14:21:52;23.00;94.80
49503;DHT22;35409;48.776;9.204;2023-05-09T14:24:18;22.90;94.90
49503;DHT22;35409;48.776;9.204;2023-05-09T14:26:44;22.90;95.00
49503;DHT22;35409;48.776;9.204;2023-05-09T14:29:09;22.80;95.30
49503;DHT22;35409;48.776;9.204;2023-05-09T14:31:35;22.70;95.40
49503;DHT22;35409;48.776;9.204;2023-05-09T14:34:01;22.60;96.30
49503;DHT22;35409;48.776;9.204;2023-05-09T14:36:27;22.40;96.90
49503;DHT22;35409;48.776;9.204;2023-05-09T14:38:53;22.30;97.30
49503;DHT22;35409;48.776;9.204;2023-05-09T14:41:18;22.20;98.00
49503;DHT22;35409;48.776;9.204;2023-05-09T14:43:44;22.00;97.50
49503;DHT22;35409;48.776;9.204;2023-05-09T14:46:10;21.80;99.30
49503;DHT22;35409;48.776;9.204;2023-05-09T14:48:36;21.50;99.90
49503;DHT22;35409;48.776;9.204;2023-05-09T14:51:02;21.20;99.90
49503;DHT22;35409;48.776;9.204;2023-05-09T14:53:27;21.00;99.90
49503;DHT22;35409;48.776;9.204;2023-05-09T14:55:54;20.80;99.90
49503;DHT22;35409;48.776;9.204;2023-05-09T14:58:20;20.70;99.90
49503;DHT22;35409;48.776;9.204;2023-05-09T15:00:46;20.70;99.90
49503;DHT22;35409;48.776;9.204;2023-05-09T15:03:12;20.60;99.90
49503;DHT22;35409;48.776;9.204;2023-05-09T15:05:39;20.60;99.90
49503;DHT22;35409;48.776;9.204;2023-05-09T15:08:05;20.80;99.90
49503;DHT22;35409;48.776;9.204;2023-05-09T15:10:31;21.00;99.90
49503;DHT22;35409;48.776;9.204;2023-05-09T15:12:58;21.20;99.90
49503;DHT22;35409;48.776;9.204;2023-05-09T15:15:23;21.30;99.90
49503;DHT22;35409;48.776;9.204;2023-05-09T15:17:50;21.40;99.90
49503;DHT22;35409;48.776;9.204;2023-05-09T15:20:16;21.60;99.90
49503;DHT22;35409;48.776;9.204;2023-05-09T15:22:46;21.80;99.90
49503;DHT22;35409;48.776;9.204;2023-05-09T15:25:13;22.00;99.90
49503;DHT22;35409;48.776;9.204;2023-05-09T15:27:39;22.20;99.90
49503;DHT22;35409;48.776;9.204;2023-05-09T15:30:05;22.40;99.90
49503;DHT22;35409;48.776;9.204;2023-05-09T15:32:31;22.50;99.10
49503;DHT22;35409;48.776;9.204;2023-05-09T15:34:57;22.50;98.60
49503;DHT22;35409;48.776;9.204;2023-05-09T15:37:22;22.50;99.30
49503;DHT22;35409;48.776;9.204;2023-05-09T15:39:48;22.50;99.40
49503;DHT22;35409;48.776;9.204;2023-05-09T15:42:14;22.40;99.60
49503;DHT22;35409;48.776;9.204;2023-05-09T15:44:41;22.40;99.90
49503;DHT22;35409;48.776;9.204;2023-05-09T15:47:10;22.30;99.90
49503;DHT22;35409;48.776;9.204;2023-05-09T15:49:35;22.30;99.10
49503;DHT22;35409;48.776;9.204;2023-05-09T15:52:05;22.20;99.40
49503;DHT22;35409;48.776;9.204;2023-05-09T15:54:32;22.10;99.90
49503;DHT22;35409;48.776;9.204;2023-05-09T15:56:58;21.90;99.90
49503;DHT22;35409;48.776;9.204;2023-05-09T15:59:24;21.80;99.90
49503;DHT22;35409;48.776;9.204;2023-05-09T16:01:50;21.70;99.90
49503;DHT22;35409;48.776;9.204;2023-05-09T16:04:15;21.70;99.90
49503;DHT22;35409;48.776;9.204;2023-05-09T16:06:41;21.70;99.90
49503;DHT22;35409;48.776;9.204;2023-05-09T16:09:07;21.60;99.90
49503;DHT22;35409;48.776;9.204;2023-05-09T16:11:34;21.50;99.90
49503;DHT22;35409;48.776;9.204;2023-05-09T16:14:00;21.30;99.90
49503;DHT22;35409;48.776;9.204;2023-05-09T16:16:26;21.20;99.90
49503;DHT22;35409;48.776;9.204;2023-05-09T16:18:52;21.10;99.90
49503;DHT22;35409;48.776;9.204;2023-05-09T16:21:18;21.00;99.90
49503;DHT22;35409;48.776;9.204;2023-05-09T16:23:44;20.80;99.90
49503;DHT22;35409;48.776;9.204;2023-05-09T16:26:10;20.70;99.90
49503;DHT22;35409;48.776;9.204;2023-05-09T16:28:35;20.60;99.90
49503;DHT22;35409;48.776;9.204;2023-05-09T16:31:01;20.60;99.90
49503;DHT22;35409;48.776;9.204;2023-05-09T16:33:29;20.50;99.90
49503;DHT22;35409;48.776;9.204;2023-05-09T16:35:56;20.40;99.90
49503;DHT22;35409;48.776;9.204;2023-05-09T16:38:22;20.40;99.90
49503;DHT22;35409;48.776;9.204;2023-05-09T16:40:48;20.30;99.90
49503;DHT22;35409;48.776;9.204;2023-05-09T16:43:15;20.30;99.90
49503;DHT22;35409;48.776;9.204;2023-05-09T16:45:41;20.30;99.90
49503;DHT22;35409;48.776;9.204;2023-05-09T16:48:07;20.20;99.90
49503;DHT22;35409;48.776;9.204;2023-05-09T16:50:33;20.10;99.90
49503;DHT22;35409;48.776;9.204;2023-05-09T16:52:58;20.10;99.90
49503;DHT22;35409;48.776;9.204;2023-05-09T16:55:24;20.10;99.90
49503;DHT22;35409;48.776;9.204;2023-05-09T16:57:50;20.10;99.90
49503;DHT22;35409;48.776;9.204;2023-05-09T17:00:16;20.00;99.90
49503;DHT22;35409;48.776;9.204;2023-05-09T17:02:42;19.80;99.90
49503;DHT22;35409;48.776;9.204;2023-05-09T17:05:07;19.70;99.90
49503;DHT22;35409;48.776;9.204;2023-05-09T17:07:33;19.50;99.90
49503;DHT22;35409;48.776;9.204;2023-05-09T17:09:59;19.50;99.90
49503;DHT22;35409;48.776;9.204;2023-05-09T17:12:24;19.40;99.90
49503;DHT22;35409;48.776;9.204;2023-05-09T17:14:51;19.30;99.90
49503;DHT22;35409;48.776;9.204;2023-05-09T17:17:17;19.30;99.90
49503;DHT22;35409;48.776;9.204;2023-05-09T17:19:43;19.20;99.90
49503;DHT22;35409;48.776;9.204;2023-05-09T17:22:09;19.10;99.90
49503;DHT22;35409;48.776;9.204;2023-05-09T17:24:34;19.00;99.90
49503;DHT22;35409;48.776;9.204;2023-05-09T17:27:00;18.90;99.90
49503;DHT22;35409;48.776;9.204;2023-05-09T17:29:27;18.60;99.90
49503;DHT22;35409;48.776;9.204;2023-05-09T17:31:54;18.40;99.90
49503;DHT22;35409;48.776;9.204;2023-05-09T17:34:21;18.10;99.90
49503;DHT22;35409;48.776;9.204;2023-05-09T17:36:47;17.90;99.90
49503;DHT22;35409;48.776;9.204;2023-05-09T17:39:12;17.60;99.90
49503;DHT22;35409;48.776;9.204;2023-05-09T17:41:38;17.50;99.90
49503;DHT22;35409;48.776;9.204;2023-05-09T17:44:04;17.40;99.90
49503;DHT22;35409;48.776;9.204;2023-05-09T17:46:30;17.40;99.90
49503;DHT22;35409;48.776;9.204;2023-05-09T17:48:56;17.20;99.90
49503;DHT22;35409;48.776;9.204;2023-05-09T17:51:22;17.00;99.90
49503;DHT22;35409;48.776;9.204;2023-05-09T17:53:48;16.90;99.90
49503;DHT22;35409;48.776;9.204;2023-05-09T17:56:13;16.80;99.90
49503;DHT22;35409;48.776;9.204;2023-05-09T17:58:39;16.70;99.90
49503;DHT22;35409;48.776;9.204;2023-05-09T18:01:05;16.60;99.90
49503;DHT22;35409;48.776;9.204;2023-05-09T18:40:33;15.50;99.90
49503;DHT22;35409;48.776;9.204;2023-05-09T18:42:58;15.40;99.90
49503;DHT22;35409;48.776;9.204;2023-05-09T18:45:24;15.30;99.90
49503;DHT22;35409;48.776;9.204;2023-05-09T18:47:49;15.30;99.90
49503;DHT22;35409;48.776;9.204;2023-05-09T18:50:15;15.30;99.90
49503;DHT22;35409;48.776;9.204;2023-05-09T18:52:42;15.30;99.90
49503;DHT22;35409;48.776;9.204;2023-05-09T18:55:09;15.20;99.90
49503;DHT22;35409;48.776;9.204;2023-05-09T18:57:35;15.20;99.90
49503;DHT22;35409;48.776;9.204;2023-05-09T19:00:00;15.20;99.90
49503;DHT22;35409;48.776;9.204;2023-05-09T19:02:26;15.20;99.90
49503;DHT22;35409;48.776;9.204;2023-05-09T19:04:51;15.10;99.90
49503;DHT22;35409;48.776;9.204;2023-05-09T19:07:17;15.10;99.90
49503;DHT22;35409;48.776;9.204;2023-05-09T19:09:43;15.10;99.90
49503;DHT22;35409;48.776;9.204;2023-05-09T19:12:08;15.00;99.90
49503;DHT22;35409;48.776;9.204;2023-05-09T19:14:34;15.00;99.90
49503;DHT22;35409;48.776;9.204;2023-05-09T19:17:02;14.90;99.90
49503;DHT22;35409;48.776;9.204;2023-05-09T19:19:29;14.90;99.90
49503;DHT22;35409;48.776;9.204;2023-05-09T19:21:55;14.80;99.90
49503;DHT22;35409;48.776;9.204;2023-05-09T19:24:21;14.80;99.90
49503;DHT22;35409;48.776;9.204;2023-05-09T19:26:47;14.70;99.90
49503;DHT22;35409;48.776;9.204;2023-05-09T19:29:12;14.60;99.90
49503;DHT22;35409;48.776;9.204;2023-05-09T19:31:38;14.50;99.90
49503;DHT22;35409;48.776;9.204;2023-05-09T19:34:03;14.50;99.90
49503;DHT22;35409;48.776;9.204;2023-05-09T19:36:29;14.40;99.90
49503;DHT22;35409;48.776;9.204;2023-05-09T19:38:55;14.30;99.90
49503;DHT22;35409;48.776;9.204;2023-05-09T19:41:21;14.30;99.90
49503;DHT22;35409;48.776;9.204;2023-05-09T19:43:46;14.30;99.90
49503;DHT22;35409;48.776;9.204;2023-05-09T19:46:15;14.30;99.90
49503;DHT22;35409;48.776;9.204;2023-05-09T19:48:40;14.20;99.90
49503;DHT22;35409;48.776;9.204;2023-05-09T19:51:06;14.20;99.90
49503;DHT22;35409;48.776;9.204;2023-05-09T19:53:33;14.20;99.90
49503;DHT22;35409;48.776;9.204;2023-05-09T19:55:58;14.10;99.90
49503;DHT22;35409;48.776;9.204;2023-05-09T19:58:24;14.10;99.90
49503;DHT22;35409;48.776;9.204;2023-05-09T20:00:49;14.10;99.90
49503;DHT22;35409;48.776;9.204;2023-05-09T20:03:15;14.10;99.90
49503;DHT22;35409;48.776;9.204;2023-05-09T20:05:41;14.10;99.90